createdAt,value
2022-11-13T00:00:07.934Z,99590.13
2022-11-13T00:02:34.086Z,99587.78
2022-11-13T00:05:00.211Z,99588.34
2022-11-13T00:07:26.346Z,99592.09
2022-11-13T00:09:52.472Z,99590.72
2022-11-13T00:12:18.579Z,99588.59
2022-11-13T00:14:44.683Z,99583.00
2022-11-13T00:17:10.769Z,99586.13
2022-11-13T00:19:36.865Z,99580.94
2022-11-13T00:22:02.992Z,99578.28
2022-11-13T00:24:29.073Z,99580.38
2022-11-13T00:26:55.163Z,99579.69
2022-11-13T00:29:21.266Z,99575.09
2022-11-13T00:31:47.361Z,99574.41
2022-11-13T00:34:40.889Z,99566.88
2022-11-13T00:36:59.556Z,99563.81
2022-11-13T00:39:25.644Z,99558.50
2022-11-13T00:41:51.735Z,99566.72
2022-11-13T00:44:18.065Z,99564.22
2022-11-13T00:46:44.163Z,99566.47
2022-11-13T00:49:10.270Z,99561.81
2022-11-13T00:51:36.848Z,99560.59
2022-11-13T00:54:02.953Z,99548.88
2022-11-13T00:56:29.052Z,99542.47
2022-11-13T00:58:55.154Z,99544.69
2022-11-13T01:01:21.313Z,99546.50
2022-11-13T01:03:47.441Z,99544.97
2022-11-13T01:06:13.558Z,99549.44
2022-11-13T01:08:39.657Z,99550.41
2022-11-13T01:11:05.753Z,99545.41
2022-11-13T01:13:31.887Z,99533.97
2022-11-13T01:15:57.987Z,99548.47
2022-11-13T01:18:24.159Z,99541.75
2022-11-13T01:20:50.303Z,99546.38
2022-11-13T01:23:16.401Z,99544.81
2022-11-13T01:25:42.499Z,99547.47
2022-11-13T01:28:08.612Z,99542.88
2022-11-13T01:30:34.704Z,99541.50
2022-11-13T01:33:03.020Z,99535.75
2022-11-13T01:35:29.146Z,99540.50
2022-11-13T01:37:55.244Z,99532.16
2022-11-13T01:40:21.345Z,99538.84
2022-11-13T01:42:47.453Z,99530.03
2022-11-13T01:45:13.545Z,99527.97
2022-11-13T01:47:39.635Z,99534.19
2022-11-13T01:50:05.798Z,99530.16
2022-11-13T01:52:31.884Z,99527.94
2022-11-13T01:54:57.982Z,99521.94
2022-11-13T01:57:24.079Z,99522.06
2022-11-13T01:59:50.173Z,99514.53
2022-11-13T02:02:16.263Z,99505.91
2022-11-13T02:04:42.360Z,99505.34
2022-11-13T02:07:08.488Z,99504.50
2022-11-13T02:09:34.668Z,99498.91
2022-11-13T02:12:00.825Z,99499.91
2022-11-13T02:14:26.927Z,99506.72
2022-11-13T02:16:53.024Z,99493.22
2022-11-13T02:19:19.145Z,99490.44
2022-11-13T02:21:45.228Z,99490.56
2022-11-13T02:24:11.329Z,99484.06
2022-11-13T02:26:37.443Z,99492.25
2022-11-13T02:29:03.553Z,99483.19
2022-11-13T02:31:29.637Z,99484.72
2022-11-13T02:33:55.760Z,99490.00
2022-11-13T02:36:21.848Z,99497.22
2022-11-13T02:38:47.949Z,99492.59
2022-11-13T02:41:14.056Z,99495.25
2022-11-13T02:43:40.145Z,99481.09
2022-11-13T02:46:06.253Z,99486.19
2022-11-13T02:48:32.361Z,99488.84
2022-11-13T02:50:58.450Z,99485.63
2022-11-13T02:53:24.556Z,99482.66
2022-11-13T02:55:50.712Z,99481.63
2022-11-13T02:58:16.811Z,99477.22
2022-11-13T03:00:42.906Z,99478.59
2022-11-13T03:03:09.022Z,99471.66
2022-11-13T03:05:35.116Z,99480.28
2022-11-13T03:08:01.199Z,99476.34
2022-11-13T03:10:27.392Z,99472.59
2022-11-13T03:12:53.521Z,99475.44
2022-11-13T03:15:19.700Z,99468.88
2022-11-13T03:17:45.812Z,99468.72
2022-11-13T03:20:11.921Z,99467.59
2022-11-13T03:22:38.015Z,99462.41
2022-11-13T03:25:09.934Z,99461.03
2022-11-13T03:27:36.707Z,99460.47
2022-11-13T03:30:02.801Z,99464.09
2022-11-13T03:32:28.903Z,99458.63
2022-11-13T03:34:55.012Z,99460.88
2022-11-13T03:37:21.105Z,99453.53
2022-11-13T03:39:47.212Z,99448.53
2022-11-13T03:42:13.302Z,99449.34
2022-11-13T03:44:39.397Z,99448.38
2022-11-13T03:47:05.507Z,99443.91
2022-11-13T03:49:31.583Z,99446.84
2022-11-13T03:51:57.668Z,99445.44
2022-11-13T03:54:24.544Z,99443.50
2022-11-13T03:56:50.636Z,99439.34
2022-11-13T03:59:16.753Z,99442.84
2022-11-13T04:01:42.946Z,99442.16
2022-11-13T04:04:09.076Z,99441.56
2022-11-13T04:06:35.188Z,99444.63
2022-11-13T04:09:01.300Z,99444.38
2022-11-13T04:11:27.394Z,99437.97
2022-11-13T04:13:53.629Z,99440.03
2022-11-13T04:16:19.788Z,99434.59
2022-11-13T04:18:45.890Z,99432.44
2022-11-13T04:21:11.999Z,99429.16
2022-11-13T04:23:38.101Z,99434.19
2022-11-13T04:26:04.194Z,99428.25
2022-11-13T04:28:30.668Z,99428.31
2022-11-13T04:30:56.985Z,99434.59
2022-11-13T04:33:23.096Z,99425.41
2022-11-13T04:35:49.214Z,99428.50
2022-11-13T04:38:15.334Z,99418.56
2022-11-13T04:40:41.435Z,99418.53
2022-11-13T04:43:07.519Z,99412.41
2022-11-13T04:45:33.650Z,99417.25
2022-11-13T04:47:59.741Z,99410.06
2022-11-13T04:50:25.834Z,99409.38
2022-11-13T04:52:51.951Z,99403.00
2022-11-13T04:55:18.036Z,99401.75
2022-11-13T04:57:44.141Z,99397.59
2022-11-13T05:00:10.264Z,99394.22
2022-11-13T05:02:36.346Z,99392.81
2022-11-13T05:05:05.274Z,99387.09
2022-11-13T05:07:31.668Z,99389.31
2022-11-13T05:09:57.760Z,99392.97
2022-11-13T05:12:23.846Z,99392.00
2022-11-13T05:14:49.961Z,99382.66
2022-11-13T05:17:16.043Z,99385.72
2022-11-13T05:19:42.127Z,99384.59
2022-11-13T05:22:08.233Z,99372.66
2022-11-13T05:24:34.335Z,99368.59
2022-11-13T05:27:00.459Z,99365.56
2022-11-13T05:29:26.576Z,99364.72
2022-11-13T05:31:52.674Z,99367.31
2022-11-13T05:34:18.771Z,99362.09
2022-11-13T05:36:44.892Z,99371.16
2022-11-13T05:39:10.994Z,99368.97
2022-11-13T05:41:37.093Z,99354.69
2022-11-13T05:44:03.201Z,99355.44
2022-11-13T05:46:29.306Z,99354.06
2022-11-13T05:48:55.395Z,99353.91
2022-11-13T05:51:21.492Z,99348.69
2022-11-13T05:53:47.593Z,99346.56
2022-11-13T05:56:13.675Z,99340.38
2022-11-13T05:58:40.120Z,99339.38
2022-11-13T06:01:06.213Z,99335.81
2022-11-13T06:03:32.324Z,99332.91
2022-11-13T06:05:58.921Z,99330.25
2022-11-13T06:08:25.132Z,99330.13
2022-11-13T06:10:51.253Z,99327.44
2022-11-13T06:13:17.391Z,99319.75
2022-11-13T06:15:43.471Z,99319.13
2022-11-13T06:18:09.579Z,99318.34
2022-11-13T06:20:35.722Z,99315.00
2022-11-13T06:23:01.818Z,99311.59
2022-11-13T06:25:27.928Z,99307.44
2022-11-13T06:27:54.042Z,99309.09
2022-11-13T06:30:20.138Z,99312.56
2022-11-13T06:32:46.224Z,99311.09
2022-11-13T06:35:12.344Z,99300.03
2022-11-13T06:37:38.432Z,99304.84
2022-11-13T06:40:04.519Z,99303.69
2022-11-13T06:42:30.632Z,99299.38
2022-11-13T06:44:56.735Z,99289.69
2022-11-13T06:47:22.823Z,99299.22
2022-11-13T06:49:48.919Z,99300.16
2022-11-13T06:52:15.021Z,99299.25
2022-11-13T06:54:41.105Z,99288.16
2022-11-13T06:57:07.253Z,99290.25
2022-11-13T06:59:33.353Z,99289.84
2022-11-13T07:01:59.458Z,99291.59
2022-11-13T07:04:25.654Z,99281.69
2022-11-13T07:06:51.836Z,99287.09
2022-11-13T07:09:17.959Z,99278.84
2022-11-13T07:11:44.135Z,99275.66
2022-11-13T07:14:10.231Z,99282.41
2022-11-13T07:17:04.172Z,99279.31
2022-11-13T07:19:22.419Z,99271.19
2022-11-13T07:21:48.498Z,99269.09
2022-11-13T07:24:17.059Z,99281.72
2022-11-13T07:26:43.411Z,99267.34
2022-11-13T07:29:09.509Z,99272.25
2022-11-13T07:31:35.608Z,99270.00
2022-11-13T07:34:01.730Z,99266.34
2022-11-13T07:36:27.824Z,99264.09
2022-11-13T07:38:59.193Z,99262.53
2022-11-13T07:41:26.288Z,99267.94
2022-11-13T07:43:52.373Z,99267.63
2022-11-13T07:46:18.465Z,99271.66
2022-11-13T07:48:44.577Z,99273.72
2022-11-13T07:51:10.681Z,99267.47
2022-11-13T07:53:36.786Z,99264.13
2022-11-13T07:56:02.929Z,99264.66
2022-11-13T07:58:29.394Z,99273.03
2022-11-13T08:00:55.736Z,99273.84
2022-11-13T08:03:21.874Z,99270.44
2022-11-13T08:05:47.966Z,99262.34
2022-11-13T08:08:14.059Z,99253.91
2022-11-13T08:10:40.177Z,99258.81
2022-11-13T08:13:06.268Z,99251.84
2022-11-13T08:15:32.365Z,99252.88
2022-11-13T08:17:58.473Z,99251.69
2022-11-13T08:20:24.584Z,99247.59
2022-11-13T08:22:50.694Z,99244.78
2022-11-13T08:25:16.808Z,99248.66
2022-11-13T08:27:42.903Z,99241.03
2022-11-13T08:30:08.991Z,99251.53
2022-11-13T08:32:35.132Z,99245.75
2022-11-13T08:35:01.230Z,99235.03
2022-11-13T08:37:27.336Z,99227.84
2022-11-13T08:39:53.473Z,99224.38
2022-11-13T08:42:19.569Z,99224.91
2022-11-13T08:44:45.662Z,99225.22
2022-11-13T08:47:11.766Z,99214.94
2022-11-13T08:49:37.864Z,99213.28
2022-11-13T08:52:03.982Z,99208.59
2022-11-13T08:54:30.100Z,99204.28
2022-11-13T08:56:59.652Z,99209.41
2022-11-13T08:59:28.159Z,99198.19
2022-11-13T09:01:54.256Z,99197.47
2022-11-13T09:04:20.348Z,99206.63
2022-11-13T09:06:46.548Z,99204.13
2022-11-13T09:09:12.720Z,99201.16
2022-11-13T09:11:38.821Z,99206.97
2022-11-13T09:14:04.911Z,99206.94
2022-11-13T09:16:31.502Z,99201.44
2022-11-13T09:18:57.600Z,99205.13
2022-11-13T09:21:23.717Z,99198.97
2022-11-13T09:23:49.842Z,99193.59
2022-11-13T09:26:15.945Z,99193.09
2022-11-13T09:28:42.036Z,99189.19
2022-11-13T09:31:08.167Z,99190.53
2022-11-13T09:33:34.286Z,99191.44
2022-11-13T09:36:00.385Z,99185.59
2022-11-13T09:38:26.640Z,99192.78
2022-11-13T09:40:52.925Z,99186.56
2022-11-13T09:43:19.024Z,99190.38
2022-11-13T09:45:45.141Z,99181.31
2022-11-13T09:48:11.236Z,99189.41
2022-11-13T09:50:37.489Z,99187.94
2022-11-13T09:53:03.632Z,99189.50
2022-11-13T09:55:29.711Z,99182.25
2022-11-13T09:57:55.821Z,99173.63
2022-11-13T10:00:22.080Z,99179.53
2022-11-13T10:02:48.196Z,99176.03
2022-11-13T10:05:14.290Z,99173.59
2022-11-13T10:07:40.741Z,99178.56
2022-11-13T10:10:06.834Z,99174.63
2022-11-13T10:12:32.929Z,99172.50
2022-11-13T10:14:59.028Z,99180.72
2022-11-13T10:17:25.108Z,99178.41
2022-11-13T10:19:51.196Z,99174.41
2022-11-13T10:22:34.376Z,99171.94
2022-11-13T10:25:00.891Z,99166.97
2022-11-13T10:27:27.049Z,99161.69
2022-11-13T10:29:53.174Z,99166.88
2022-11-13T10:32:19.305Z,99161.22
2022-11-13T10:34:45.408Z,99162.91
2022-11-13T10:37:11.494Z,99157.09
2022-11-13T10:39:37.573Z,99149.09
2022-11-13T10:42:03.682Z,99152.44
2022-11-13T10:44:29.787Z,99155.28
2022-11-13T10:46:55.879Z,99150.13
2022-11-13T10:49:21.980Z,99137.81
2022-11-13T10:51:48.072Z,99146.75
2022-11-13T10:54:14.169Z,99138.78
2022-11-13T10:56:40.271Z,99136.31
2022-11-13T10:59:06.360Z,99133.78
2022-11-13T11:01:32.506Z,99129.78
2022-11-13T11:03:58.650Z,99131.13
2022-11-13T11:06:41.959Z,99121.94
2022-11-13T11:09:11.402Z,99120.63
2022-11-13T11:11:37.502Z,99114.63
2022-11-13T11:14:03.654Z,99112.75
2022-11-13T11:16:29.866Z,99113.56
2022-11-13T11:18:55.985Z,99100.06
2022-11-13T11:21:22.081Z,99100.19
2022-11-13T11:23:51.824Z,99092.81
2022-11-13T11:26:21.813Z,99092.50
2022-11-13T11:28:47.934Z,99091.44
2022-11-13T11:31:14.048Z,99093.56
2022-11-13T11:33:40.151Z,99078.88
2022-11-13T11:36:06.252Z,99081.31
2022-11-13T11:38:32.546Z,99084.47
2022-11-13T11:40:58.686Z,99076.25
2022-11-13T11:43:24.771Z,99073.06
2022-11-13T11:45:50.893Z,99075.00
2022-11-13T11:48:16.994Z,99068.13
2022-11-13T11:50:43.097Z,99069.25
2022-11-13T11:53:09.207Z,99064.94
2022-11-13T11:55:35.306Z,99063.00
2022-11-13T11:58:01.392Z,99054.47
2022-11-13T12:00:27.593Z,99054.91
2022-11-13T12:02:53.719Z,99056.53
2022-11-13T12:05:20.403Z,99049.13
2022-11-13T12:07:46.667Z,99044.25
2022-11-13T12:10:12.765Z,99041.41
2022-11-13T12:12:38.861Z,99035.53
2022-11-13T12:15:05.002Z,99030.19
2022-11-13T12:17:31.100Z,99025.31
2022-11-13T12:19:57.189Z,99027.69
2022-11-13T12:22:25.864Z,99029.00
2022-11-13T12:24:55.835Z,99019.06
2022-11-13T12:27:21.943Z,99011.88
2022-11-13T12:29:48.055Z,99010.97
2022-11-13T12:32:14.166Z,99004.88
2022-11-13T12:34:40.352Z,99003.88
2022-11-13T12:37:06.517Z,99008.56
2022-11-13T12:39:32.638Z,99000.56
2022-11-13T12:41:58.759Z,99002.03
2022-11-13T12:44:24.856Z,99002.13
2022-11-13T12:46:51.006Z,98991.44
2022-11-13T12:49:17.108Z,98986.28
2022-11-13T12:51:43.233Z,98970.25
2022-11-13T12:54:09.335Z,98973.41
2022-11-13T12:56:35.433Z,98961.03
2022-11-13T12:59:29.148Z,98969.69
2022-11-13T13:01:50.619Z,98964.34
2022-11-13T13:04:16.792Z,98972.81
2022-11-13T13:06:42.979Z,98967.56
2022-11-13T13:09:09.114Z,98959.94
2022-11-13T13:11:35.251Z,98950.88
2022-11-13T13:14:01.352Z,98946.56
2022-11-13T13:16:27.453Z,98955.03
2022-11-13T13:18:53.568Z,98954.84
2022-11-13T13:21:19.671Z,98946.66
2022-11-13T13:23:45.817Z,98945.63
2022-11-13T13:26:12.407Z,98937.81
2022-11-13T13:28:38.494Z,98938.25
2022-11-13T13:31:04.651Z,98939.91
2022-11-13T13:33:30.761Z,98929.22
2022-11-13T13:35:56.854Z,98928.91
2022-11-13T13:38:22.939Z,98931.00
2022-11-13T13:40:49.036Z,98920.91
2022-11-13T13:43:15.138Z,98921.50
2022-11-13T13:45:41.236Z,98916.91
2022-11-13T13:48:07.349Z,98912.13
2022-11-13T13:50:33.448Z,98912.28
2022-11-13T13:52:59.543Z,98908.00
2022-11-13T13:55:25.653Z,98917.47
2022-11-13T13:57:51.753Z,98918.22
2022-11-13T14:00:17.863Z,98913.06
2022-11-13T14:02:43.985Z,98909.13
2022-11-13T14:05:10.099Z,98910.16
2022-11-13T14:07:36.201Z,98904.97
2022-11-13T14:10:02.308Z,98906.19
2022-11-13T14:12:28.392Z,98905.09
2022-11-13T14:14:54.484Z,98900.59
2022-11-13T14:17:21.565Z,98901.97
2022-11-13T14:19:47.661Z,98912.22
2022-11-13T14:22:13.759Z,98903.09
2022-11-13T14:24:39.889Z,98905.97
2022-11-13T14:27:06.056Z,98898.94
2022-11-13T14:29:32.143Z,98891.97
2022-11-13T14:31:58.731Z,98889.03
2022-11-13T14:34:24.817Z,98888.31
2022-11-13T14:36:50.910Z,98881.34
2022-11-13T14:39:17.026Z,98885.00
2022-11-13T14:41:43.135Z,98880.69
2022-11-13T14:44:09.232Z,98877.19
2022-11-13T14:46:35.332Z,98877.19
2022-11-13T14:49:01.421Z,98885.28
2022-11-13T14:51:27.511Z,98879.03
2022-11-13T14:53:53.854Z,98879.03
2022-11-13T14:56:19.950Z,98875.38
2022-11-13T14:58:46.082Z,98874.78
2022-11-13T15:01:12.199Z,98867.44
2022-11-13T15:03:38.501Z,98869.13
2022-11-13T15:06:04.628Z,98856.50
2022-11-13T15:08:30.761Z,98846.47
2022-11-13T15:10:56.873Z,98851.44
2022-11-13T15:13:22.970Z,98845.81
2022-11-13T15:15:49.094Z,98845.75
2022-11-13T15:18:15.175Z,98843.06
2022-11-13T15:20:41.307Z,98843.88
2022-11-13T15:23:08.240Z,98840.19
2022-11-13T15:25:34.330Z,98836.81
2022-11-13T15:28:00.415Z,98834.34
2022-11-13T15:30:26.561Z,98833.25
2022-11-13T15:32:52.652Z,98826.16
2022-11-13T15:35:18.745Z,98823.69
2022-11-13T15:37:44.869Z,98823.31
2022-11-13T15:40:10.973Z,98825.06
2022-11-13T15:42:37.074Z,98830.09
2022-11-13T15:45:03.199Z,98825.22
2022-11-13T15:47:29.304Z,98826.84
2022-11-13T15:50:13.988Z,98827.56
2022-11-13T15:52:40.807Z,98828.53
2022-11-13T15:55:06.898Z,98819.97
2022-11-13T15:57:32.998Z,98826.19
2022-11-13T15:59:59.135Z,98820.00
2022-11-13T16:02:25.261Z,98822.16
2022-11-13T16:04:56.477Z,98818.09
2022-11-13T16:07:23.224Z,98816.75
2022-11-13T16:09:49.383Z,98811.94
2022-11-13T16:12:15.485Z,98804.28
2022-11-13T16:14:41.599Z,98802.00
2022-11-13T16:17:07.823Z,98796.09
2022-11-13T16:19:33.917Z,98796.81
2022-11-13T16:22:00.015Z,98790.03
2022-11-13T16:24:26.114Z,98791.19
2022-11-13T16:26:52.213Z,98795.56
2022-11-13T16:29:18.334Z,98791.94
2022-11-13T16:31:44.445Z,98795.97
2022-11-13T16:34:10.541Z,98790.44
2022-11-13T16:36:37.001Z,98797.81
2022-11-13T16:39:03.099Z,98788.84
2022-11-13T16:41:29.198Z,98796.50
2022-11-13T16:43:55.321Z,98799.03
2022-11-13T16:46:21.422Z,98794.06
2022-11-13T16:48:47.519Z,98790.22
2022-11-13T16:51:13.631Z,98790.38
2022-11-13T16:53:39.727Z,98788.41
2022-11-13T16:56:05.821Z,98782.59
2022-11-13T16:58:31.939Z,98784.44
2022-11-13T17:01:00.230Z,98773.50
2022-11-13T17:03:26.833Z,98769.88
2022-11-13T17:05:53.201Z,98767.25
2022-11-13T17:08:19.317Z,98764.25
2022-11-13T17:10:45.399Z,98767.25
2022-11-13T17:13:11.505Z,98755.59
2022-11-13T17:15:37.601Z,98753.44
2022-11-13T17:18:03.698Z,98758.63
2022-11-13T17:20:29.827Z,98750.47
2022-11-13T17:22:55.925Z,98740.00
2022-11-13T17:25:22.012Z,98742.69
2022-11-13T17:27:48.124Z,98748.03
2022-11-13T17:30:14.229Z,98744.03
2022-11-13T17:32:40.333Z,98753.00
2022-11-13T17:35:06.462Z,98752.53
2022-11-13T17:37:32.546Z,98754.34
2022-11-13T17:39:58.688Z,98755.16
2022-11-13T17:42:25.096Z,98744.25
2022-11-13T17:44:51.197Z,98744.06
2022-11-13T17:47:17.298Z,98736.75
2022-11-13T17:49:43.421Z,98743.06
2022-11-13T17:52:09.523Z,98744.25
2022-11-13T17:54:35.631Z,98738.44
2022-11-13T17:57:01.733Z,98749.03
2022-11-13T17:59:27.843Z,98742.03
2022-11-13T18:01:54.035Z,98748.38
2022-11-13T18:04:20.172Z,98746.06
2022-11-13T18:06:46.320Z,98740.22
2022-11-13T18:09:12.460Z,98734.44
2022-11-13T18:11:38.574Z,98728.63
2022-11-13T18:14:04.669Z,98729.78
2022-11-13T18:16:30.780Z,98724.81
2022-11-13T18:18:56.895Z,98731.44
2022-11-13T18:21:23.555Z,98722.31
2022-11-13T18:23:50.004Z,98723.97
2022-11-13T18:26:16.184Z,98721.84
2022-11-13T18:28:42.263Z,98728.97
2022-11-13T18:31:08.357Z,98710.75
2022-11-13T18:33:34.467Z,98713.22
2022-11-13T18:36:00.566Z,98718.97
2022-11-13T18:38:26.674Z,98723.75
2022-11-13T18:40:52.773Z,98720.94
2022-11-13T18:43:18.875Z,98729.44
2022-11-13T18:45:44.955Z,98712.38
2022-11-13T18:48:11.066Z,98712.91
2022-11-13T18:50:37.174Z,98714.56
2022-11-13T18:53:03.264Z,98714.88
2022-11-13T18:55:29.358Z,98716.88
2022-11-13T18:57:55.463Z,98707.91
2022-11-13T19:00:21.554Z,98711.53
2022-11-13T19:02:47.655Z,98710.88
2022-11-13T19:05:13.761Z,98703.41
2022-11-13T19:07:39.855Z,98689.53
2022-11-13T19:10:05.962Z,98694.13
2022-11-13T19:12:32.051Z,98689.50
2022-11-13T19:14:58.137Z,98685.63
2022-11-13T19:17:24.251Z,98679.47
2022-11-13T19:19:50.336Z,98683.69
2022-11-13T19:22:16.415Z,98687.03
2022-11-13T19:24:42.534Z,98681.59
2022-11-13T19:27:08.617Z,98685.28
2022-11-13T19:29:34.695Z,98686.22
2022-11-13T19:32:00.805Z,98685.16
2022-11-13T19:34:26.913Z,98681.88
2022-11-13T19:36:53.010Z,98676.22
2022-11-13T19:39:19.113Z,98671.09
2022-11-13T19:41:45.214Z,98679.00
2022-11-13T19:44:11.304Z,98672.63
2022-11-13T19:46:37.769Z,98671.97
2022-11-13T19:49:03.857Z,98659.28
2022-11-13T19:51:29.953Z,98663.56
2022-11-13T19:53:56.064Z,98661.06
2022-11-13T19:56:22.177Z,98656.75
2022-11-13T19:58:48.273Z,98656.34
2022-11-13T20:01:14.468Z,98644.81
2022-11-13T20:03:40.665Z,98653.56
2022-11-13T20:06:06.748Z,98640.91
2022-11-13T20:08:33.207Z,98633.94
2022-11-13T20:10:59.460Z,98634.63
2022-11-13T20:13:25.551Z,98638.91
2022-11-13T20:15:51.667Z,98627.97
2022-11-13T20:18:17.752Z,98637.03
2022-11-13T20:20:43.844Z,98626.38
2022-11-13T20:23:09.959Z,98635.25
2022-11-13T20:25:36.047Z,98630.88
2022-11-13T20:28:02.142Z,98620.16
2022-11-13T20:30:29.054Z,98624.78
2022-11-13T20:32:55.153Z,98618.03
2022-11-13T20:35:21.257Z,98619.03
2022-11-13T20:37:47.363Z,98612.59
2022-11-13T20:40:13.464Z,98617.38
2022-11-13T20:42:39.562Z,98607.69
2022-11-13T20:45:05.664Z,98610.50
2022-11-13T20:47:31.760Z,98608.84
2022-11-13T20:49:57.844Z,98606.03
2022-11-13T20:52:23.984Z,98604.56
2022-11-13T20:54:50.097Z,98603.03
2022-11-13T20:57:16.189Z,98601.91
2022-11-13T20:59:42.321Z,98607.13
2022-11-13T21:02:08.469Z,98608.84
2022-11-13T21:04:34.588Z,98602.00
2022-11-13T21:07:00.746Z,98601.09
2022-11-13T21:09:26.981Z,98604.88
2022-11-13T21:11:53.077Z,98594.13
2022-11-13T21:14:19.190Z,98589.13
2022-11-13T21:16:45.279Z,98591.59
2022-11-13T21:19:11.374Z,98577.34
2022-11-13T21:21:37.492Z,98591.13
2022-11-13T21:24:03.585Z,98587.66
2022-11-13T21:26:29.685Z,98574.50
2022-11-13T21:28:55.787Z,98573.66
2022-11-13T21:31:21.885Z,98572.47
2022-11-13T21:33:47.980Z,98570.56
2022-11-13T21:36:14.108Z,98568.59
2022-11-13T21:38:40.203Z,98575.28
2022-11-13T21:41:06.290Z,98567.09
2022-11-13T21:43:32.412Z,98562.97
2022-11-13T21:45:58.546Z,98561.06
2022-11-13T21:48:27.053Z,98566.47
2022-11-13T21:50:55.349Z,98563.56
2022-11-13T21:53:21.453Z,98554.66
2022-11-13T21:55:47.544Z,98562.84
2022-11-13T21:58:13.656Z,98557.81
2022-11-13T22:00:39.744Z,98549.97
2022-11-13T22:03:05.861Z,98544.91
2022-11-13T22:05:31.963Z,98540.69
2022-11-13T22:07:58.053Z,98540.59
2022-11-13T22:10:24.156Z,98542.31
2022-11-13T22:12:50.273Z,98531.75
2022-11-13T22:15:16.375Z,98532.59
2022-11-13T22:17:42.473Z,98538.19
2022-11-13T22:20:08.615Z,98526.53
2022-11-13T22:22:34.730Z,98530.53
2022-11-13T22:25:00.824Z,98528.41
2022-11-13T22:27:26.934Z,98527.59
2022-11-13T22:29:53.028Z,98529.03
2022-11-13T22:32:19.128Z,98526.75
2022-11-13T22:34:45.835Z,98531.25
2022-11-13T22:37:11.929Z,98525.06
2022-11-13T22:39:38.037Z,98522.72
2022-11-13T22:42:04.155Z,98520.63
2022-11-13T22:44:51.330Z,98526.13
2022-11-13T22:47:16.363Z,98521.88
2022-11-13T22:49:42.453Z,98523.66
2022-11-13T22:52:08.546Z,98524.84
2022-11-13T22:54:34.660Z,98519.09
2022-11-13T22:57:00.757Z,98523.22
2022-11-13T22:59:26.903Z,98522.28
2022-11-13T23:01:55.682Z,98503.91
2022-11-13T23:04:21.992Z,98516.31
2022-11-13T23:06:48.134Z,98517.28
2022-11-13T23:09:14.281Z,98509.53
2022-11-13T23:11:40.685Z,98500.94
2022-11-13T23:14:09.128Z,98500.25
2022-11-13T23:16:36.140Z,98500.25
2022-11-13T23:19:02.242Z,98492.19
2022-11-13T23:21:28.349Z,98485.25
2022-11-13T23:23:54.486Z,98484.25
2022-11-13T23:26:20.581Z,98484.78
2022-11-13T23:28:46.676Z,98474.84
2022-11-13T23:31:12.789Z,98478.47
2022-11-13T23:33:38.881Z,98468.56
2022-11-13T23:36:04.990Z,98472.88
2022-11-13T23:38:31.524Z,98471.88
2022-11-13T23:40:57.860Z,98473.22
2022-11-13T23:43:36.437Z,98467.75
2022-11-13T23:46:10.032Z,98462.63
2022-11-13T23:48:36.133Z,98466.91
2022-11-13T23:51:02.244Z,98468.41
2022-11-13T23:53:28.345Z,98465.91
2022-11-13T23:55:54.433Z,98461.16
2022-11-13T23:58:20.515Z,98458.16
